Terminal Aerodrome Forecast
Issued by NWS Omaha/Valley, NE

Home | Current Version | Previous Version | Text Only | Print | Product List | Glossary Off
Versions: 1 2 3 4 5 6 7 8 9 10 11 12 13 14 15

000
FTUS43 KOAX 270520
TAFOFK
TAF
KOFK 270520Z 2706/2806 14005KT P6SM BKN250
     FM270700 16006KT P6SM -SHRA SCT100 BKN250
      TEMPO 2707/2708 VRB15G25KT -TSRA BKN100CB
     FM271100 17005KT P6SM BKN250
     FM271800 20008KT P6SM SCT200 PROB30 2718/2721 4SM TSRA BKN040CB
     FM280000 35007KT P6SM SCT250=

USA.gov is the U.S. government's official web portal to all federal, state and local government web resources and services.